sensor_id;sensor_type;location;lat;lon;timestamp;temperature;humidity
4002;DHT22;2015;48.670;9.060;2023-05-18T00:00:48;5.60;99.90
4002;DHT22;2015;48.670;9.060;2023-05-18T00:03:24;5.60;99.90
4002;DHT22;2015;48.670;9.060;2023-05-18T00:05:56;5.60;99.90
4002;DHT22;2015;48.670;9.060;2023-05-18T00:08:35;5.60;99.90
4002;DHT22;2015;48.670;9.060;2023-05-18T00:11:08;5.60;99.90
4002;DHT22;2015;48.670;9.060;2023-05-18T00:13:39;5.60;99.90
4002;DHT22;2015;48.670;9.060;2023-05-18T00:16:11;5.50;99.90
4002;DHT22;2015;48.670;9.060;2023-05-18T00:18:46;5.40;99.90
4002;DHT22;2015;48.670;9.060;2023-05-18T00:21:18;5.40;99.90
4002;DHT22;2015;48.670;9.060;2023-05-18T00:23:49;5.40;99.90
4002;DHT22;2015;48.670;9.060;2023-05-18T00:26:22;5.50;99.90
4002;DHT22;2015;48.670;9.060;2023-05-18T00:28:54;5.50;99.90
4002;DHT22;2015;48.670;9.060;2023-05-18T00:31:26;5.50;99.90
4002;DHT22;2015;48.670;9.060;2023-05-18T00:33:57;5.50;99.90
4002;DHT22;2015;48.670;9.060;2023-05-18T00:36:30;5.50;99.90
4002;DHT22;2015;48.670;9.060;2023-05-18T00:39:03;5.50;99.90
4002;DHT22;2015;48.670;9.060;2023-05-18T00:41:35;5.40;99.90
4002;DHT22;2015;48.670;9.060;2023-05-18T00:44:07;5.40;99.90
4002;DHT22;2015;48.670;9.060;2023-05-18T00:46:38;5.30;99.90
4002;DHT22;2015;48.670;9.060;2023-05-18T00:49:10;5.40;99.90
4002;DHT22;2015;48.670;9.060;2023-05-18T00:51:43;5.30;99.90
4002;DHT22;2015;48.670;9.060;2023-05-18T00:54:16;5.30;99.90
4002;DHT22;2015;48.670;9.060;2023-05-18T00:56:47;5.30;99.90
4002;DHT22;2015;48.670;9.060;2023-05-18T00:59:20;5.30;99.90
4002;DHT22;2015;48.670;9.060;2023-05-18T01:01:52;5.20;99.90
4002;DHT22;2015;48.670;9.060;2023-05-18T01:04:24;5.20;99.90
4002;DHT22;2015;48.670;9.060;2023-05-18T01:06:58;5.10;99.90
4002;DHT22;2015;48.670;9.060;2023-05-18T01:09:37;5.10;99.90
4002;DHT22;2015;48.670;9.060;2023-05-18T01:12:27;5.10;99.90
4002;DHT22;2015;48.670;9.060;2023-05-18T01:15:09;5.10;99.90
4002;DHT22;2015;48.670;9.060;2023-05-18T01:18:08;5.00;99.90
4002;DHT22;2015;48.670;9.060;2023-05-18T01:20:48;5.00;99.90
4002;DHT22;2015;48.670;9.060;2023-05-18T01:26:33;5.10;99.90
4002;DHT22;2015;48.670;9.060;2023-05-18T01:29:09;5.10;99.90
4002;DHT22;2015;48.670;9.060;2023-05-18T01:31:43;5.00;99.90
4002;DHT22;2015;48.670;9.060;2023-05-18T01:34:15;5.00;99.90
4002;DHT22;2015;48.670;9.060;2023-05-18T01:36:48;5.00;99.90
4002;DHT22;2015;48.670;9.060;2023-05-18T01:39:19;4.90;99.90
4002;DHT22;2015;48.670;9.060;2023-05-18T01:41:58;4.90;99.90
4002;DHT22;2015;48.670;9.060;2023-05-18T01:44:44;4.90;99.90
4002;DHT22;2015;48.670;9.060;2023-05-18T01:47:18;4.90;99.90
4002;DHT22;2015;48.670;9.060;2023-05-18T01:50:17;4.90;99.90
4002;DHT22;2015;48.670;9.060;2023-05-18T01:55:30;4.90;99.90
4002;DHT22;2015;48.670;9.060;2023-05-18T01:58:03;4.90;99.90
4002;DHT22;2015;48.670;9.060;2023-05-18T02:00:37;4.90;99.90
4002;DHT22;2015;48.670;9.060;2023-05-18T02:03:14;5.00;99.90
4002;DHT22;2015;48.670;9.060;2023-05-18T02:05:46;5.00;99.90
4002;DHT22;2015;48.670;9.060;2023-05-18T02:08:17;5.00;99.90
4002;DHT22;2015;48.670;9.060;2023-05-18T02:10:50;5.00;99.90
4002;DHT22;2015;48.670;9.060;2023-05-18T02:13:21;5.10;99.90
4002;DHT22;2015;48.670;9.060;2023-05-18T02:15:53;5.10;99.90
4002;DHT22;2015;48.670;9.060;2023-05-18T02:18:25;5.10;99.90
4002;DHT22;2015;48.670;9.060;2023-05-18T02:21:00;5.10;99.90
4002;DHT22;2015;48.670;9.060;2023-05-18T02:23:32;5.20;99.90
4002;DHT22;2015;48.670;9.060;2023-05-18T02:26:04;5.20;99.90
4002;DHT22;2015;48.670;9.060;2023-05-18T02:28:36;5.20;99.90
4002;DHT22;2015;48.670;9.060;2023-05-18T02:31:11;5.20;99.90
4002;DHT22;2015;48.670;9.060;2023-05-18T02:33:43;5.20;99.90
4002;DHT22;2015;48.670;9.060;2023-05-18T02:36:14;5.30;99.90
4002;DHT22;2015;48.670;9.060;2023-05-18T02:38:49;5.30;99.90
4002;DHT22;2015;48.670;9.060;2023-05-18T02:41:20;5.40;99.90
4002;DHT22;2015;48.670;9.060;2023-05-18T02:43:53;5.40;99.90
4002;DHT22;2015;48.670;9.060;2023-05-18T02:46:25;5.50;99.90
4002;DHT22;2015;48.670;9.060;2023-05-18T02:48:57;5.50;99.90
4002;DHT22;2015;48.670;9.060;2023-05-18T02:51:29;5.50;99.90
4002;DHT22;2015;48.670;9.060;2023-05-18T02:54:02;5.50;99.90
4002;DHT22;2015;48.670;9.060;2023-05-18T02:56:33;5.50;99.90
4002;DHT22;2015;48.670;9.060;2023-05-18T02:59:05;5.50;99.90
4002;DHT22;2015;48.670;9.060;2023-05-18T03:01:39;5.60;99.90
4002;DHT22;2015;48.670;9.060;2023-05-18T03:04:11;5.60;99.90
4002;DHT22;2015;48.670;9.060;2023-05-18T03:06:44;5.60;99.90
4002;DHT22;2015;48.670;9.060;2023-05-18T03:09:17;5.60;99.90
4002;DHT22;2015;48.670;9.060;2023-05-18T03:11:50;5.60;99.90
4002;DHT22;2015;48.670;9.060;2023-05-18T03:14:22;5.50;99.90
4002;DHT22;2015;48.670;9.060;2023-05-18T03:16:54;5.50;99.90
4002;DHT22;2015;48.670;9.060;2023-05-18T03:19:28;5.40;99.90
4002;DHT22;2015;48.670;9.060;2023-05-18T03:22:00;5.40;99.90
4002;DHT22;2015;48.670;9.060;2023-05-18T03:24:32;5.40;99.90
4002;DHT22;2015;48.670;9.060;2023-05-18T03:27:10;5.30;99.90
4002;DHT22;2015;48.670;9.060;2023-05-18T03:29:43;5.30;99.90
4002;DHT22;2015;48.670;9.060;2023-05-18T03:32:16;5.30;99.90
4002;DHT22;2015;48.670;9.060;2023-05-18T03:34:47;5.30;99.90
4002;DHT22;2015;48.670;9.060;2023-05-18T03:37:19;5.30;99.90
4002;DHT22;2015;48.670;9.060;2023-05-18T03:39:51;5.30;99.90
4002;DHT22;2015;48.670;9.060;2023-05-18T03:42:23;5.30;99.90
4002;DHT22;2015;48.670;9.060;2023-05-18T03:44:56;5.30;99.90
4002;DHT22;2015;48.670;9.060;2023-05-18T03:47:28;5.30;99.90
4002;DHT22;2015;48.670;9.060;2023-05-18T03:50:01;5.30;99.90
4002;DHT22;2015;48.670;9.060;2023-05-18T03:52:33;5.30;99.90
4002;DHT22;2015;48.670;9.060;2023-05-18T03:55:05;5.30;99.90
4002;DHT22;2015;48.670;9.060;2023-05-18T03:57:37;5.30;99.90
4002;DHT22;2015;48.670;9.060;2023-05-18T04:00:10;5.40;99.90
4002;DHT22;2015;48.670;9.060;2023-05-18T04:02:43;5.40;99.90
4002;DHT22;2015;48.670;9.060;2023-05-18T04:05:15;5.40;99.90
4002;DHT22;2015;48.670;9.060;2023-05-18T04:07:47;5.40;99.90
4002;DHT22;2015;48.670;9.060;2023-05-18T04:10:20;5.40;99.90
4002;DHT22;2015;48.670;9.060;2023-05-18T04:12:52;5.40;99.90
4002;DHT22;2015;48.670;9.060;2023-05-18T04:15:24;5.50;99.90
4002;DHT22;2015;48.670;9.060;2023-05-18T04:17:56;5.50;99.90
4002;DHT22;2015;48.670;9.060;2023-05-18T04:20:28;5.60;99.90
4002;DHT22;2015;48.670;9.060;2023-05-18T04:23:00;5.60;99.90
4002;DHT22;2015;48.670;9.060;2023-05-18T04:25:32;5.60;99.90
4002;DHT22;2015;48.670;9.060;2023-05-18T04:28:04;5.60;99.90
4002;DHT22;2015;48.670;9.060;2023-05-18T04:30:36;5.70;99.90
4002;DHT22;2015;48.670;9.060;2023-05-18T04:33:08;5.70;99.90
4002;DHT22;2015;48.670;9.060;2023-05-18T04:35:41;5.70;99.90
4002;DHT22;2015;48.670;9.060;2023-05-18T04:38:13;5.80;99.90
4002;DHT22;2015;48.670;9.060;2023-05-18T04:40:46;5.80;99.90
4002;DHT22;2015;48.670;9.060;2023-05-18T04:43:19;5.90;99.90
4002;DHT22;2015;48.670;9.060;2023-05-18T04:45:51;5.90;99.90
4002;DHT22;2015;48.670;9.060;2023-05-18T04:48:23;6.00;99.90
4002;DHT22;2015;48.670;9.060;2023-05-18T04:50:56;6.10;99.90
4002;DHT22;2015;48.670;9.060;2023-05-18T04:53:28;6.10;99.90
4002;DHT22;2015;48.670;9.060;2023-05-18T04:56:04;6.20;99.90
4002;DHT22;2015;48.670;9.060;2023-05-18T04:58:36;6.30;99.90
4002;DHT22;2015;48.670;9.060;2023-05-18T05:01:08;6.30;99.90
4002;DHT22;2015;48.670;9.060;2023-05-18T05:03:40;6.40;99.90
4002;DHT22;2015;48.670;9.060;2023-05-18T05:06:13;6.50;99.90
4002;DHT22;2015;48.670;9.060;2023-05-18T05:08:44;6.50;99.90
4002;DHT22;2015;48.670;9.060;2023-05-18T05:11:16;6.60;99.90
4002;DHT22;2015;48.670;9.060;2023-05-18T05:13:48;6.70;99.90
4002;DHT22;2015;48.670;9.060;2023-05-18T05:16:20;6.70;99.90
4002;DHT22;2015;48.670;9.060;2023-05-18T05:18:52;6.80;99.90
4002;DHT22;2015;48.670;9.060;2023-05-18T05:21:24;6.80;99.90
4002;DHT22;2015;48.670;9.060;2023-05-18T05:23:56;6.90;99.90
4002;DHT22;2015;48.670;9.060;2023-05-18T05:26:28;7.00;99.90
4002;DHT22;2015;48.670;9.060;2023-05-18T05:28:59;7.00;99.90
4002;DHT22;2015;48.670;9.060;2023-05-18T05:31:31;7.10;99.90
4002;DHT22;2015;48.670;9.060;2023-05-18T05:34:05;7.10;99.90
4002;DHT22;2015;48.670;9.060;2023-05-18T05:36:36;7.20;99.90
4002;DHT22;2015;48.670;9.060;2023-05-18T05:39:09;7.30;99.90
4002;DHT22;2015;48.670;9.060;2023-05-18T05:41:42;7.40;99.90
4002;DHT22;2015;48.670;9.060;2023-05-18T05:44:14;7.50;99.90
4002;DHT22;2015;48.670;9.060;2023-05-18T05:46:45;7.50;99.90
4002;DHT22;2015;48.670;9.060;2023-05-18T05:49:17;7.60;99.90
4002;DHT22;2015;48.670;9.060;2023-05-18T05:51:49;7.60;99.90
4002;DHT22;2015;48.670;9.060;2023-05-18T05:54:21;7.70;99.90
4002;DHT22;2015;48.670;9.060;2023-05-18T05:56:53;7.80;99.90
4002;DHT22;2015;48.670;9.060;2023-05-18T05:59:25;7.80;99.90
4002;DHT22;2015;48.670;9.060;2023-05-18T06:01:57;7.90;99.90
4002;DHT22;2015;48.670;9.060;2023-05-18T06:04:29;8.00;99.90
4002;DHT22;2015;48.670;9.060;2023-05-18T06:07:01;8.00;99.90
4002;DHT22;2015;48.670;9.060;2023-05-18T06:09:33;8.10;99.90
4002;DHT22;2015;48.670;9.060;2023-05-18T06:12:05;8.20;99.90
4002;DHT22;2015;48.670;9.060;2023-05-18T06:14:37;8.30;99.90
4002;DHT22;2015;48.670;9.060;2023-05-18T06:17:09;8.30;99.90
4002;DHT22;2015;48.670;9.060;2023-05-18T06:19:41;8.40;99.90
4002;DHT22;2015;48.670;9.060;2023-05-18T06:22:13;8.50;99.90
4002;DHT22;2015;48.670;9.060;2023-05-18T06:24:45;8.60;99.90
4002;DHT22;2015;48.670;9.060;2023-05-18T06:27:18;8.70;99.90
4002;DHT22;2015;48.670;9.060;2023-05-18T06:29:49;8.90;99.90
4002;DHT22;2015;48.670;9.060;2023-05-18T06:32:23;9.00;99.90
4002;DHT22;2015;48.670;9.060;2023-05-18T06:34:55;9.00;99.90
4002;DHT22;2015;48.670;9.060;2023-05-18T06:37:28;9.00;99.90
4002;DHT22;2015;48.670;9.060;2023-05-18T06:40:00;9.10;99.90
4002;DHT22;2015;48.670;9.060;2023-05-18T06:42:32;9.10;99.90
4002;DHT22;2015;48.670;9.060;2023-05-18T06:45:04;9.20;99.90
4002;DHT22;2015;48.670;9.060;2023-05-18T06:47:37;9.20;99.90
4002;DHT22;2015;48.670;9.060;2023-05-18T06:50:09;9.30;99.90
4002;DHT22;2015;48.670;9.060;2023-05-18T06:52:41;9.30;99.90
4002;DHT22;2015;48.670;9.060;2023-05-18T06:55:12;9.40;99.90
4002;DHT22;2015;48.670;9.060;2023-05-18T06:57:45;9.50;99.90
4002;DHT22;2015;48.670;9.060;2023-05-18T07:00:18;9.60;99.90
4002;DHT22;2015;48.670;9.060;2023-05-18T07:02:51;9.70;99.90
4002;DHT22;2015;48.670;9.060;2023-05-18T07:05:23;9.80;99.90
4002;DHT22;2015;48.670;9.060;2023-05-18T07:07:55;9.90;99.90
4002;DHT22;2015;48.670;9.060;2023-05-18T07:10:27;9.90;99.90
4002;DHT22;2015;48.670;9.060;2023-05-18T07:12:59;10.10;99.90
4002;DHT22;2015;48.670;9.060;2023-05-18T07:15:31;10.20;99.90
4002;DHT22;2015;48.670;9.060;2023-05-18T07:18:04;10.30;99.90
4002;DHT22;2015;48.670;9.060;2023-05-18T07:20:36;10.50;99.90
4002;DHT22;2015;48.670;9.060;2023-05-18T07:23:07;10.50;99.90
4002;DHT22;2015;48.670;9.060;2023-05-18T07:25:39;10.60;99.90
4002;DHT22;2015;48.670;9.060;2023-05-18T07:28:11;10.70;99.90
4002;DHT22;2015;48.670;9.060;2023-05-18T07:30:43;10.80;99.90
4002;DHT22;2015;48.670;9.060;2023-05-18T07:33:15;10.90;99.90
4002;DHT22;2015;48.670;9.060;2023-05-18T07:35:47;11.00;99.90
4002;DHT22;2015;48.670;9.060;2023-05-18T07:38:19;11.10;99.90
4002;DHT22;2015;48.670;9.060;2023-05-18T07:40:50;11.20;99.90
4002;DHT22;2015;48.670;9.060;2023-05-18T07:43:22;11.30;99.90
4002;DHT22;2015;48.670;9.060;2023-05-18T07:45:54;11.30;99.90
4002;DHT22;2015;48.670;9.060;2023-05-18T07:48:26;11.40;99.90
4002;DHT22;2015;48.670;9.060;2023-05-18T07:50:57;11.50;99.90
4002;DHT22;2015;48.670;9.060;2023-05-18T07:53:30;11.60;99.90
4002;DHT22;2015;48.670;9.060;2023-05-18T07:56:02;11.60;99.90
4002;DHT22;2015;48.670;9.060;2023-05-18T07:58:35;11.70;99.90
4002;DHT22;2015;48.670;9.060;2023-05-18T08:01:07;11.80;99.90
4002;DHT22;2015;48.670;9.060;2023-05-18T08:03:39;11.80;99.90
4002;DHT22;2015;48.670;9.060;2023-05-18T08:06:11;11.90;99.90
4002;DHT22;2015;48.670;9.060;2023-05-18T08:08:42;12.00;99.90
4002;DHT22;2015;48.670;9.060;2023-05-18T08:11:14;12.10;99.90
4002;DHT22;2015;48.670;9.060;2023-05-18T08:13:46;12.20;99.90
4002;DHT22;2015;48.670;9.060;2023-05-18T08:16:18;12.40;99.90
4002;DHT22;2015;48.670;9.060;2023-05-18T08:18:50;12.40;99.90
4002;DHT22;2015;48.670;9.060;2023-05-18T08:21:22;12.50;99.90
4002;DHT22;2015;48.670;9.060;2023-05-18T08:23:54;12.50;99.90
4002;DHT22;2015;48.670;9.060;2023-05-18T08:26:26;12.60;99.90
4002;DHT22;2015;48.670;9.060;2023-05-18T08:28:58;12.60;99.90
4002;DHT22;2015;48.670;9.060;2023-05-18T08:31:29;12.70;99.90
4002;DHT22;2015;48.670;9.060;2023-05-18T08:34:03;13.00;99.90
4002;DHT22;2015;48.670;9.060;2023-05-18T08:36:35;13.20;99.90
4002;DHT22;2015;48.670;9.060;2023-05-18T08:39:07;13.60;99.90
4002;DHT22;2015;48.670;9.060;2023-05-18T08:44:55;14.20;99.90
4002;DHT22;2015;48.670;9.060;2023-05-18T08:47:23;15.30;99.90
4002;DHT22;2015;48.670;9.060;2023-05-18T08:49:58;16.60;99.90
4002;DHT22;2015;48.670;9.060;2023-05-18T08:52:35;17.20;99.90
4002;DHT22;2015;48.670;9.060;2023-05-18T08:55:08;17.40;99.90
4002;DHT22;2015;48.670;9.060;2023-05-18T08:57:45;17.50;99.90
4002;DHT22;2015;48.670;9.060;2023-05-18T09:00:21;18.20;99.90
4002;DHT22;2015;48.670;9.060;2023-05-18T09:02:55;17.80;99.90
4002;DHT22;2015;48.670;9.060;2023-05-18T09:05:27;18.30;99.90
4002;DHT22;2015;48.670;9.060;2023-05-18T09:07:59;18.90;99.90
4002;DHT22;2015;48.670;9.060;2023-05-18T09:10:32;20.10;99.90
4002;DHT22;2015;48.670;9.060;2023-05-18T09:13:05;20.10;99.90
4002;DHT22;2015;48.670;9.060;2023-05-18T09:15:36;19.60;98.70
4002;DHT22;2015;48.670;9.060;2023-05-18T09:18:08;19.00;99.40
4002;DHT22;2015;48.670;9.060;2023-05-18T09:20:40;19.30;99.70
4002;DHT22;2015;48.670;9.060;2023-05-18T09:23:13;19.20;99.90
4002;DHT22;2015;48.670;9.060;2023-05-18T09:25:45;19.50;99.90
4002;DHT22;2015;48.670;9.060;2023-05-18T09:28:32;19.50;98.40
4002;DHT22;2015;48.670;9.060;2023-05-18T09:31:07;19.20;99.20
4002;DHT22;2015;48.670;9.060;2023-05-18T09:33:42;19.00;99.10
4002;DHT22;2015;48.670;9.060;2023-05-18T09:36:16;19.30;99.20
4002;DHT22;2015;48.670;9.060;2023-05-18T09:38:47;19.60;99.40
4002;DHT22;2015;48.670;9.060;2023-05-18T09:41:25;19.10;99.90
4002;DHT22;2015;48.670;9.060;2023-05-18T09:43:57;18.60;99.40
4002;DHT22;2015;48.670;9.060;2023-05-18T09:46:31;19.00;99.90
4002;DHT22;2015;48.670;9.060;2023-05-18T09:49:04;19.10;98.60
4002;DHT22;2015;48.670;9.060;2023-05-18T09:51:37;18.60;99.90
4002;DHT22;2015;48.670;9.060;2023-05-18T09:54:09;18.40;98.90
4002;DHT22;2015;48.670;9.060;2023-05-18T09:56:44;18.00;99.90
4002;DHT22;2015;48.670;9.060;2023-05-18T09:59:37;18.20;99.90
4002;DHT22;2015;48.670;9.060;2023-05-18T10:02:11;19.30;98.70
4002;DHT22;2015;48.670;9.060;2023-05-18T10:04:43;20.30;98.30
4002;DHT22;2015;48.670;9.060;2023-05-18T10:07:16;20.00;96.90
4002;DHT22;2015;48.670;9.060;2023-05-18T10:10:00;19.70;95.90
4002;DHT22;2015;48.670;9.060;2023-05-18T10:12:32;19.80;96.40
4002;DHT22;2015;48.670;9.060;2023-05-18T10:15:08;20.30;95.30
4002;DHT22;2015;48.670;9.060;2023-05-18T10:17:42;21.00;96.20
4002;DHT22;2015;48.670;9.060;2023-05-18T10:20:20;21.50;93.30
4002;DHT22;2015;48.670;9.060;2023-05-18T10:22:55;21.40;94.80
4002;DHT22;2015;48.670;9.060;2023-05-18T10:25:28;22.60;92.30
4002;DHT22;2015;48.670;9.060;2023-05-18T10:28:05;23.20;92.60
4002;DHT22;2015;48.670;9.060;2023-05-18T10:30:39;24.20;87.30
4002;DHT22;2015;48.670;9.060;2023-05-18T10:33:12;23.80;86.70
4002;DHT22;2015;48.670;9.060;2023-05-18T10:36:04;23.80;87.60
4002;DHT22;2015;48.670;9.060;2023-05-18T10:38:37;24.50;86.00
4002;DHT22;2015;48.670;9.060;2023-05-18T10:41:11;23.90;85.20
4002;DHT22;2015;48.670;9.060;2023-05-18T10:43:44;22.50;83.60
4002;DHT22;2015;48.670;9.060;2023-05-18T10:46:16;21.00;89.40
4002;DHT22;2015;48.670;9.060;2023-05-18T10:48:49;20.40;91.30
4002;DHT22;2015;48.670;9.060;2023-05-18T10:51:23;20.40;92.00
4002;DHT22;2015;48.670;9.060;2023-05-18T10:54:11;21.20;89.70
4002;DHT22;2015;48.670;9.060;2023-05-18T10:56:46;22.50;87.70
4002;DHT22;2015;48.670;9.060;2023-05-18T10:59:19;23.00;86.90
4002;DHT22;2015;48.670;9.060;2023-05-18T11:01:54;23.20;84.60
4002;DHT22;2015;48.670;9.060;2023-05-18T11:04:27;22.50;85.20
4002;DHT22;2015;48.670;9.060;2023-05-18T11:07:00;22.00;86.90
4002;DHT22;2015;48.670;9.060;2023-05-18T11:09:32;22.10;90.30
4002;DHT22;2015;48.670;9.060;2023-05-18T11:12:13;22.20;86.00
4002;DHT22;2015;48.670;9.060;2023-05-18T11:14:51;21.90;85.00
4002;DHT22;2015;48.670;9.060;2023-05-18T11:17:32;21.50;86.10
4002;DHT22;2015;48.670;9.060;2023-05-18T11:28:09;20.00;91.10
4002;DHT22;2015;48.670;9.060;2023-05-18T11:33:21;19.00;91.40
4002;DHT22;2015;48.670;9.060;2023-05-18T11:36:08;18.60;92.70
4002;DHT22;2015;48.670;9.060;2023-05-18T11:41:27;18.60;91.40
4002;DHT22;2015;48.670;9.060;2023-05-18T11:49:36;18.10;92.10
4002;DHT22;2015;48.670;9.060;2023-05-18T11:52:13;18.10;93.40
4002;DHT22;2015;48.670;9.060;2023-05-18T11:54:59;17.90;93.10
4002;DHT22;2015;48.670;9.060;2023-05-18T12:00:08;17.60;93.10
4002;DHT22;2015;48.670;9.060;2023-05-18T12:02:44;17.50;93.60
4002;DHT22;2015;48.670;9.060;2023-05-18T12:05:17;17.40;93.60
4002;DHT22;2015;48.670;9.060;2023-05-18T12:07:53;17.30;95.60
4002;DHT22;2015;48.670;9.060;2023-05-18T12:10:25;17.20;93.00
4002;DHT22;2015;48.670;9.060;2023-05-18T12:12:57;17.40;93.70
4002;DHT22;2015;48.670;9.060;2023-05-18T12:15:30;17.50;93.20
4002;DHT22;2015;48.670;9.060;2023-05-18T12:18:02;17.30;94.10
4002;DHT22;2015;48.670;9.060;2023-05-18T12:20:38;17.00;94.50
4002;DHT22;2015;48.670;9.060;2023-05-18T12:23:10;16.80;94.80
4002;DHT22;2015;48.670;9.060;2023-05-18T12:25:42;16.80;93.50
4002;DHT22;2015;48.670;9.060;2023-05-18T12:28:13;17.00;94.30
4002;DHT22;2015;48.670;9.060;2023-05-18T12:30:47;17.10;93.00
4002;DHT22;2015;48.670;9.060;2023-05-18T12:33:20;17.00;93.30
4002;DHT22;2015;48.670;9.060;2023-05-18T12:35:53;17.00;94.40
4002;DHT22;2015;48.670;9.060;2023-05-18T12:38:25;16.90;94.30
4002;DHT22;2015;48.670;9.060;2023-05-18T12:40:58;16.90;94.60
4002;DHT22;2015;48.670;9.060;2023-05-18T12:43:33;16.70;94.60
4002;DHT22;2015;48.670;9.060;2023-05-18T12:46:05;16.80;93.90
4002;DHT22;2015;48.670;9.060;2023-05-18T12:48:44;17.30;94.10
4002;DHT22;2015;48.670;9.060;2023-05-18T12:51:18;17.70;92.90
4002;DHT22;2015;48.670;9.060;2023-05-18T12:53:50;17.90;93.50
4002;DHT22;2015;48.670;9.060;2023-05-18T12:56:22;17.60;92.90
4002;DHT22;2015;48.670;9.060;2023-05-18T12:58:59;17.20;94.30
4002;DHT22;2015;48.670;9.060;2023-05-18T13:01:40;17.10;93.90
4002;DHT22;2015;48.670;9.060;2023-05-18T13:04:12;17.10;94.10
4002;DHT22;2015;48.670;9.060;2023-05-18T13:06:44;17.20;94.80
4002;DHT22;2015;48.670;9.060;2023-05-18T13:09:16;17.30;94.60
4002;DHT22;2015;48.670;9.060;2023-05-18T13:11:52;17.40;92.80
4002;DHT22;2015;48.670;9.060;2023-05-18T13:14:37;17.10;93.50
4002;DHT22;2015;48.670;9.060;2023-05-18T13:17:09;17.10;93.50
4002;DHT22;2015;48.670;9.060;2023-05-18T13:19:56;17.20;93.30
4002;DHT22;2015;48.670;9.060;2023-05-18T13:22:28;17.20;95.70
4002;DHT22;2015;48.670;9.060;2023-05-18T13:24:59;17.40;95.70
4002;DHT22;2015;48.670;9.060;2023-05-18T13:27:31;17.40;93.30
4002;DHT22;2015;48.670;9.060;2023-05-18T13:30:03;17.50;93.40
4002;DHT22;2015;48.670;9.060;2023-05-18T13:32:35;17.40;95.60
4002;DHT22;2015;48.670;9.060;2023-05-18T13:35:07;17.10;94.80
4002;DHT22;2015;48.670;9.060;2023-05-18T13:37:39;17.10;95.40
4002;DHT22;2015;48.670;9.060;2023-05-18T13:40:12;17.20;94.40
4002;DHT22;2015;48.670;9.060;2023-05-18T13:42:45;17.50;93.70
4002;DHT22;2015;48.670;9.060;2023-05-18T13:45:17;17.60;94.60
4002;DHT22;2015;48.670;9.060;2023-05-18T13:47:49;17.60;93.60
4002;DHT22;2015;48.670;9.060;2023-05-18T13:50:27;17.30;94.20
4002;DHT22;2015;48.670;9.060;2023-05-18T13:52:59;17.30;94.10
4002;DHT22;2015;48.670;9.060;2023-05-18T13:55:31;17.30;94.20
4002;DHT22;2015;48.670;9.060;2023-05-18T13:58:04;17.60;93.60
4002;DHT22;2015;48.670;9.060;2023-05-18T14:00:36;17.50;94.70
4002;DHT22;2015;48.670;9.060;2023-05-18T14:03:08;17.60;93.70
4002;DHT22;2015;48.670;9.060;2023-05-18T14:05:40;17.80;93.20
4002;DHT22;2015;48.670;9.060;2023-05-18T14:08:12;18.10;92.40
4002;DHT22;2015;48.670;9.060;2023-05-18T14:10:44;18.00;93.60
4002;DHT22;2015;48.670;9.060;2023-05-18T14:13:16;17.80;92.80
4002;DHT22;2015;48.670;9.060;2023-05-18T14:15:48;17.70;94.50
4002;DHT22;2015;48.670;9.060;2023-05-18T14:18:19;17.30;94.20
4002;DHT22;2015;48.670;9.060;2023-05-18T14:20:51;17.10;93.20
4002;DHT22;2015;48.670;9.060;2023-05-18T14:23:23;16.90;93.90
4002;DHT22;2015;48.670;9.060;2023-05-18T14:25:55;16.90;94.50
4002;DHT22;2015;48.670;9.060;2023-05-18T14:28:26;17.00;93.90
4002;DHT22;2015;48.670;9.060;2023-05-18T14:30:58;17.00;93.80
4002;DHT22;2015;48.670;9.060;2023-05-18T14:33:30;17.20;95.20
4002;DHT22;2015;48.670;9.060;2023-05-18T14:36:02;17.50;94.80
4002;DHT22;2015;48.670;9.060;2023-05-18T14:38:34;17.80;92.50
4002;DHT22;2015;48.670;9.060;2023-05-18T14:41:06;17.50;92.60
4002;DHT22;2015;48.670;9.060;2023-05-18T14:43:38;17.20;93.40
4002;DHT22;2015;48.670;9.060;2023-05-18T14:46:09;17.30;93.70
4002;DHT22;2015;48.670;9.060;2023-05-18T14:48:41;17.10;93.70
4002;DHT22;2015;48.670;9.060;2023-05-18T14:51:13;16.90;93.90
4002;DHT22;2015;48.670;9.060;2023-05-18T14:53:46;16.80;94.20
4002;DHT22;2015;48.670;9.060;2023-05-18T14:56:18;16.70;94.40
4002;DHT22;2015;48.670;9.060;2023-05-18T14:58:50;16.60;94.20
4002;DHT22;2015;48.670;9.060;2023-05-18T15:01:22;16.70;94.40
4002;DHT22;2015;48.670;9.060;2023-05-18T15:03:53;16.60;94.80
4002;DHT22;2015;48.670;9.060;2023-05-18T15:06:25;16.60;94.80
4002;DHT22;2015;48.670;9.060;2023-05-18T15:08:58;16.70;94.40
4002;DHT22;2015;48.670;9.060;2023-05-18T15:11:29;16.80;93.90
4002;DHT22;2015;48.670;9.060;2023-05-18T15:14:01;16.80;93.70
4002;DHT22;2015;48.670;9.060;2023-05-18T15:16:33;16.70;94.10
4002;DHT22;2015;48.670;9.060;2023-05-18T15:19:05;16.60;94.80
4002;DHT22;2015;48.670;9.060;2023-05-18T15:21:37;16.50;94.40
4002;DHT22;2015;48.670;9.060;2023-05-18T15:24:09;16.60;94.40
4002;DHT22;2015;48.670;9.060;2023-05-18T15:26:40;16.60;94.70
4002;DHT22;2015;48.670;9.060;2023-05-18T15:29:12;16.60;94.90
4002;DHT22;2015;48.670;9.060;2023-05-18T15:31:44;16.70;94.70
4002;DHT22;2015;48.670;9.060;2023-05-18T15:34:17;16.60;94.50
4002;DHT22;2015;48.670;9.060;2023-05-18T15:36:49;16.60;95.00
4002;DHT22;2015;48.670;9.060;2023-05-18T15:39:21;16.70;95.20
4002;DHT22;2015;48.670;9.060;2023-05-18T15:41:53;16.70;95.20
4002;DHT22;2015;48.670;9.060;2023-05-18T15:44:24;16.60;94.90
4002;DHT22;2015;48.670;9.060;2023-05-18T15:47:00;16.60;95.10
4002;DHT22;2015;48.670;9.060;2023-05-18T15:49:32;16.50;95.40
4002;DHT22;2015;48.670;9.060;2023-05-18T15:52:04;16.60;94.80
4002;DHT22;2015;48.670;9.060;2023-05-18T15:54:36;16.50;95.60
4002;DHT22;2015;48.670;9.060;2023-05-18T15:57:09;16.50;95.60
4002;DHT22;2015;48.670;9.060;2023-05-18T15:59:42;16.30;95.80
4002;DHT22;2015;48.670;9.060;2023-05-18T16:02:14;16.30;96.30
4002;DHT22;2015;48.670;9.060;2023-05-18T16:04:46;16.30;96.30
4002;DHT22;2015;48.670;9.060;2023-05-18T16:07:18;16.10;96.40
4002;DHT22;2015;48.670;9.060;2023-05-18T16:09:50;16.00;96.40
4002;DHT22;2015;48.670;9.060;2023-05-18T16:12:21;15.80;96.40
4002;DHT22;2015;48.670;9.060;2023-05-18T16:14:53;15.80;96.60
4002;DHT22;2015;48.670;9.060;2023-05-18T16:17:25;15.70;97.10
4002;DHT22;2015;48.670;9.060;2023-05-18T16:19:57;15.70;97.00
4002;DHT22;2015;48.670;9.060;2023-05-18T16:22:29;15.70;97.20
4002;DHT22;2015;48.670;9.060;2023-05-18T16:25:00;15.60;97.60
4002;DHT22;2015;48.670;9.060;2023-05-18T16:27:32;15.50;98.00
4002;DHT22;2015;48.670;9.060;2023-05-18T16:30:04;15.60;97.80
4002;DHT22;2015;48.670;9.060;2023-05-18T16:32:36;15.50;97.90
4002;DHT22;2015;48.670;9.060;2023-05-18T16:35:08;15.40;98.10
4002;DHT22;2015;48.670;9.060;2023-05-18T16:37:41;15.40;99.10
4002;DHT22;2015;48.670;9.060;2023-05-18T16:40:13;15.40;98.90
4002;DHT22;2015;48.670;9.060;2023-05-18T16:42:45;15.30;99.80
4002;DHT22;2015;48.670;9.060;2023-05-18T16:45:18;15.30;99.60
4002;DHT22;2015;48.670;9.060;2023-05-18T16:47:49;15.20;99.50
4002;DHT22;2015;48.670;9.060;2023-05-18T16:50:21;15.10;99.90
4002;DHT22;2015;48.670;9.060;2023-05-18T16:52:53;15.10;99.90
4002;DHT22;2015;48.670;9.060;2023-05-18T16:55:25;15.10;99.90
4002;DHT22;2015;48.670;9.060;2023-05-18T16:57:57;15.20;99.90
4002;DHT22;2015;48.670;9.060;2023-05-18T17:00:29;15.20;99.90
4002;DHT22;2015;48.670;9.060;2023-05-18T17:03:02;15.20;99.90
4002;DHT22;2015;48.670;9.060;2023-05-18T17:05:35;15.20;99.90
4002;DHT22;2015;48.670;9.060;2023-05-18T17:08:07;15.10;99.90
4002;DHT22;2015;48.670;9.060;2023-05-18T17:10:41;15.20;99.90
4002;DHT22;2015;48.670;9.060;2023-05-18T17:13:12;15.10;99.90
4002;DHT22;2015;48.670;9.060;2023-05-18T17:15:44;15.00;99.90
4002;DHT22;2015;48.670;9.060;2023-05-18T17:18:16;14.90;99.90